Latest Weather Observations for PORTABLE RFSNSW13

IDN60801

Issued at 10:52 pm EDT Wednesday 19 February 2020 (issued every 10 minutes, with the page automatically refreshed every 10 minutes)

About weather observations | Map of weather stations | Latest weather observations for NSW | Other Formats
Station Details ID: 250067 Name: PORTABLE RFSNSW13 Lat: -36.54 Lon: 148.55 Height: 1177.0 m

Portable automatic weather stations (PAWS) are operated by other organisations, such as Fire and Emergency Services, and are included here by agreement. Portable stations may be deployed to a location for a short period and their location may be subject to change without notice. Wind observations from these stations are provided from heights of either three (3) or ten (10) metres above ground level (AGL).

Data from the previous 72 hours. | See also: Recent months for locations in New South Wales
Date/Time
EDT
Temp
°C
App
Temp
°C
Dew
Point
°C
Rel
Hum
%
Delta-T
°C
Wind Press
QNH
hPa
Press
MSL
hPa
Rain since
9am
mm
Dir  Spd
km/h
Gust
km/h
Spd
kts
Gust
kts
17/02:40pm 25.5 24.3 13.9 48 7.2 NNE 13 17 7 9 - - 0.0
17/02:30pm 25.2 23.9 12.5 45 7.7 NE 11 15 6 8 - - 0.0
17/02:20pm 24.3 23.3 11.0 43 7.8 NNW 7 13 4 7 - - 0.0
17/02:10pm 24.8 24.7 13.8 50 6.8 N 7 13 4 7 - - 0.0
17/02:00pm 24.7 24.3 13.0 48 7.1 E 7 9 4 5 - - 0.0
17/01:50pm 24.7 24.6 13.8 50 6.7 SSE 7 9 4 5 - - 0.0
17/01:40pm 23.9 24.4 15.5 59 5.3 S 7 11 4 6 - - 0.0
17/01:30pm 23.4 24.5 16.6 65 4.4 SW 6 7 3 4 - - 0.0
17/01:20pm 22.4 23.6 16.0 67 4.1 S 4 9 2 5 - - 0.0
17/01:10pm 22.8 23.5 16.0 65 4.3 W 7 9 4 5 - - 0.0
17/01:00pm 22.8 23.7 16.6 68 4.0 WSW 7 9 4 5 - - 0.0
17/12:50pm 21.3 22.3 16.4 73 3.1 W 6 9 3 5 - - 0.0
17/12:40pm 21.9 22.3 16.3 70 3.6 W 9 13 5 7 - - 0.0
17/12:30pm 23.7 24.8 17.0 66 4.3 WSW 7 9 4 5 - - 0.0
17/12:20pm 23.7 24.6 16.6 64 4.6 S 7 9 4 5 - - 0.0
17/12:10pm 23.2 23.5 14.9 59 5.2 ESE 7 11 4 6 - - 0.0
17/12:00pm 22.6 22.9 14.6 60 5.0 SSE 6 9 3 5 - - 0.0
17/11:50am 21.8 21.9 14.4 63 4.6 SE 7 9 4 5 - - 0.0
17/11:40am 22.4 23.0 15.4 64 4.4 SSW 6 9 3 5 - - 0.0
17/11:30am 22.0 22.4 14.8 63 4.5 SSE 6 9 3 5 - - 0.0
17/11:20am 21.1 21.1 14.3 65 4.2 SSE 7 9 4 5 - - 0.0
17/11:10am 21.0 21.3 15.0 68 3.7 SSE 7 11 4 6 - - 0.0
17/11:00am 20.5 20.9 15.4 72 3.2 SSE 7 9 4 5 - - 0.0
17/10:50am 20.6 20.8 14.7 69 3.6 S 7 9 4 5 - - 0.0
17/10:40am 20.1 20.5 15.3 74 3.0 SSE 7 9 4 5 - - 0.0
17/10:30am 19.8 20.3 15.0 74 3.0 S 6 9 3 5 - - 0.0
17/10:20am 19.4 19.9 15.0 75 2.7 SSE 6 7 3 4 - - 0.0
17/10:10am 19.0 19.5 14.9 77 2.5 SE 6 7 3 4 - - 0.0
17/10:00am 18.4 19.0 14.3 77 2.5 E 4 6 2 3 - - 3.0
17/09:50am 17.8 18.1 14.4 80 2.1 SSE 6 7 3 4 - - 3.0
17/09:40am 17.3 17.4 13.8 80 2.1 SSE 6 9 3 5 - - 3.0
17/09:30am 16.7 16.9 14.2 85 1.5 ESE 6 7 3 4 - - 3.0
17/09:20am 16.2 16.1 13.9 86 1.4 E 7 7 4 4 - - 3.0
17/09:10am 15.8 15.7 14.0 89 1.1 E 7 9 4 5 - - 3.0
17/09:00am 15.4 15.4 13.7 90 1.0 ESE 6 7 3 4 - - 3.0
17/08:50am 15.0 15.1 14.0 94 0.6 E 6 6 3 3 - - 3.0
17/08:40am 14.4 14.5 14.0 97 0.2 ESE 6 7 3 4 - - 3.0
17/08:30am 14.2 14.7 14.0 99 0.1 ESE 4 7 2 4 - - 3.0
17/08:20am 13.6 13.6 13.5 99 0.1 E 6 7 3 4 - - 3.0
17/08:10am 13.5 13.8 13.4 99 0.1 ESE 4 6 2 3 - - 3.0
17/08:00am 13.0 13.2 12.9 99 0.1 SE 4 6 2 3 - - 3.0
17/07:50am 13.1 13.7 13.0 99 0.1 E 2 4 1 2 - - 3.0
17/07:40am 12.8 13.3 12.8 100 0.0 E 2 4 1 2 - - 3.0
17/07:30am 12.6 13.0 12.6 100 0.0 NE 2 4 1 2 - - 3.0
17/07:20am 12.5 12.9 12.5 100 0.0 NNE 2 4 1 2 - - 3.0
17/07:10am 12.5 12.5 12.5 100 0.0 ENE 4 4 2 2 - - 3.0
17/07:00am 12.6 12.7 12.6 100 0.0 E 4 4 2 2 - - 3.0
17/06:50am 12.6 12.7 12.6 100 0.0 E 4 6 2 3 - - 3.0
17/06:40am 12.7 12.8 12.7 100 0.0 ESE 4 6 2 3 - - 3.0
17/06:30am 12.7 12.8 12.7 100 0.0 ESE 4 6 2 3 - - 3.0
17/06:20am 12.7 12.8 12.7 100 0.0 E 4 6 2 3 - - 3.0
17/06:10am 12.7 12.8 12.7 100 0.0 E 4 6 2 3 - - 3.0
17/06:00am 12.6 12.7 12.6 100 0.0 ESE 4 6 2 3 - - 3.0
17/05:50am 12.7 12.4 12.7 100 0.0 ESE 6 7 3 4 - - 3.0
17/05:40am 12.6 12.3 12.6 100 0.0 ESE 6 9 3 5 - - 3.0
17/05:30am 12.6 12.3 12.6 100 0.0 E 6 7 3 4 - - 3.0
17/05:20am 12.6 12.3 12.6 100 0.0 ESE 6 7 3 4 - - 3.0
17/05:10am 12.6 12.3 12.6 100 0.0 ESE 6 9 3 5 - - 3.0
17/05:00am 12.4 12.4 12.4 100 0.0 ESE 4 6 2 3 - - 3.0
17/04:50am 12.4 12.0 12.4 100 0.0 ESE 6 7 3 4 - - 3.0
17/04:40am 12.4 12.0 12.4 100 0.0 ESE 6 7 3 4 - - 3.0
17/04:30am 12.3 11.9 12.3 100 0.0 SE 6 7 3 4 - - 3.0
17/04:20am 12.3 11.9 12.3 100 0.0 ESE 6 9 3 5 - - 3.0
17/04:10am 12.2 11.6 12.2 100 0.0 SE 7 7 4 4 - - 3.0
17/04:00am 12.2 11.6 12.2 100 0.0 SE 7 9 4 5 - - 3.0
17/03:50am 12.2 11.6 12.2 100 0.0 ESE 7 7 4 4 - - 3.0
17/03:40am 12.1 11.4 12.1 100 0.0 SE 7 9 4 5 - - 3.0
17/03:30am 12.1 11.4 12.1 100 0.0 SE 7 11 4 6 - - 3.0
17/03:20am 12.1 11.4 12.1 100 0.0 SE 7 9 4 5 - - 3.0
17/03:10am 12.0 11.3 12.0 100 0.0 SE 7 9 4 5 - - 3.0
17/03:00am 12.0 11.3 12.0 100 0.0 SE 7 9 4 5 - - 3.0
17/02:50am 12.0 11.3 12.0 100 0.0 SSE 7 9 4 5 - - 3.0
17/02:40am 12.0 10.9 12.0 100 0.0 SSE 9 11 5 6 - - 3.0
17/02:30am 12.0 10.9 12.0 100 0.0 SSE 9 11 5 6 - - 3.0
17/02:20am 11.9 10.8 11.9 100 0.0 SSE 9 11 5 6 - - 3.0
17/02:10am 11.9 10.8 11.9 100 0.0 SE 9 13 5 7 - - 3.0
17/02:00am 12.0 10.9 11.9 99 0.1 SE 9 9 5 5 - - 3.0
17/01:50am 12.0 10.9 11.9 99 0.1 SSE 9 13 5 7 - - 3.0
17/01:40am 12.0 10.5 11.9 99 0.1 SSE 11 13 6 7 - - 3.0
17/01:30am 12.1 11.0 12.1 100 0.0 SSE 9 11 5 6 - - 2.8
17/01:20am 12.2 11.1 12.1 99 0.1 SE 9 11 5 6 - - 2.8
17/01:10am 12.2 11.1 12.1 99 0.1 SE 9 13 5 7 - - 2.8
17/01:00am 12.2 11.2 12.2 100 0.0 SE 9 13 5 7 - - 2.8
17/12:50am 12.3 11.7 12.2 99 0.1 SE 7 9 4 5 - - 2.8
17/12:40am 12.3 11.3 12.2 99 0.1 SE 9 11 5 6 - - 2.8
17/12:30am 12.3 11.3 12.2 99 0.1 SE 9 11 5 6 - - 2.8
17/12:20am 12.3 11.7 12.2 99 0.1 SE 7 9 4 5 - - 2.8
17/12:10am 12.3 11.7 12.2 99 0.1 ESE 7 9 4 5 - - 2.8
17/12:00am 12.3 11.2 12.1 99 0.1 SE 9 13 5 7 - - 2.8
 
Date/Time
EDT
Temp
°C
App
Temp
°C
Dew
Point
°C
Rel
Hum
%
Delta-T
°C
Wind Press
QNH
hPa
Press
MSL
hPa
Rain since
9am
mm
Dir  Spd
km/h
Gust
km/h
Spd
kts
Gust
kts
16/11:50pm 12.4 11.8 12.2 99 0.1 SE 7 9 4 5 - - 2.8
16/11:40pm 12.3 11.3 12.2 99 0.1 SSE 9 11 5 6 - - 2.8
16/11:30pm 12.3 11.7 12.2 99 0.1 SE 7 9 4 5 - - 2.8
16/11:20pm 12.3 11.6 12.1 99 0.1 SSE 7 9 4 5 - - 2.8
16/11:10pm 12.2 11.5 12.1 99 0.1 SSE 7 11 4 6 - - 2.8
16/11:00pm 12.3 11.6 12.1 99 0.1 S 7 9 4 5 - - 2.8

Other formats

Comma delimited format used in spreadsheet applications
http://www.bom.gov.au/fwo/IDN60801/IDN60801.99755.axf

JavaScript Object Notation format (JSON) in row-major order
http://www.bom.gov.au/fwo/IDN60801/IDN60801.99755.json

Data quality

Most of these data are generated automatically and are frequently updated. Quality checks on data are not normally performed. It is possible for incorrect values to appear. Refer to information at About Latest Weather Observations and please check the disclaimer before using these data.